sensor_id;sensor_type;location;lat;lon;timestamp;temperature;humidity
210;DHT22;90;48.810;9.120;2023-06-10T00:00:07;18.60;70.50
210;DHT22;90;48.810;9.120;2023-06-10T00:02:34;18.70;70.40
210;DHT22;90;48.810;9.120;2023-06-10T00:05:00;18.70;70.40
210;DHT22;90;48.810;9.120;2023-06-10T00:07:27;18.70;70.40
210;DHT22;90;48.810;9.120;2023-06-10T00:09:54;18.80;70.10
210;DHT22;90;48.810;9.120;2023-06-10T00:12:22;18.90;70.10
210;DHT22;90;48.810;9.120;2023-06-10T00:14:49;18.80;70.50
210;DHT22;90;48.810;9.120;2023-06-10T00:17:17;18.90;70.40
210;DHT22;90;48.810;9.120;2023-06-10T00:19:44;18.90;70.40
210;DHT22;90;48.810;9.120;2023-06-10T00:22:12;18.90;70.30
210;DHT22;90;48.810;9.120;2023-06-10T00:24:39;18.80;70.30
210;DHT22;90;48.810;9.120;2023-06-10T00:27:07;18.90;70.30
210;DHT22;90;48.810;9.120;2023-06-10T00:29:35;18.80;70.90
210;DHT22;90;48.810;9.120;2023-06-10T00:32:02;18.80;70.90
210;DHT22;90;48.810;9.120;2023-06-10T00:34:29;18.70;70.80
210;DHT22;90;48.810;9.120;2023-06-10T00:36:57;18.70;71.30
210;DHT22;90;48.810;9.120;2023-06-10T00:39:24;18.60;71.30
210;DHT22;90;48.810;9.120;2023-06-10T00:41:50;18.60;71.50
210;DHT22;90;48.810;9.120;2023-06-10T00:44:17;18.50;71.60
210;DHT22;90;48.810;9.120;2023-06-10T00:46:46;18.50;71.70
210;DHT22;90;48.810;9.120;2023-06-10T00:49:13;18.40;72.00
210;DHT22;90;48.810;9.120;2023-06-10T00:51:40;18.40;72.50
210;DHT22;90;48.810;9.120;2023-06-10T00:54:07;18.30;72.60
210;DHT22;90;48.810;9.120;2023-06-10T00:56:34;18.30;72.80
210;DHT22;90;48.810;9.120;2023-06-10T00:59:01;18.30;72.80
210;DHT22;90;48.810;9.120;2023-06-10T01:01:28;18.30;72.60
210;DHT22;90;48.810;9.120;2023-06-10T01:04:24;18.30;72.70
210;DHT22;90;48.810;9.120;2023-06-10T01:06:57;18.30;73.00
210;DHT22;90;48.810;9.120;2023-06-10T01:09:33;18.20;73.30
210;DHT22;90;48.810;9.120;2023-06-10T01:12:09;18.30;73.30
210;DHT22;90;48.810;9.120;2023-06-10T01:14:36;18.30;73.30
210;DHT22;90;48.810;9.120;2023-06-10T01:17:04;18.30;73.10
210;DHT22;90;48.810;9.120;2023-06-10T01:19:33;18.20;73.20
210;DHT22;90;48.810;9.120;2023-06-10T01:22:03;18.20;73.20
210;DHT22;90;48.810;9.120;2023-06-10T01:24:31;18.10;73.30
210;DHT22;90;48.810;9.120;2023-06-10T01:27:01;18.10;73.40
210;DHT22;90;48.810;9.120;2023-06-10T01:29:37;18.10;73.60
210;DHT22;90;48.810;9.120;2023-06-10T01:32:07;18.10;73.70
210;DHT22;90;48.810;9.120;2023-06-10T01:34:36;18.20;73.30
210;DHT22;90;48.810;9.120;2023-06-10T01:37:06;18.20;73.00
210;DHT22;90;48.810;9.120;2023-06-10T01:39:33;18.20;73.30
210;DHT22;90;48.810;9.120;2023-06-10T01:42:00;18.20;73.10
210;DHT22;90;48.810;9.120;2023-06-10T01:44:27;18.20;73.10
210;DHT22;90;48.810;9.120;2023-06-10T01:46:54;18.20;73.10
210;DHT22;90;48.810;9.120;2023-06-10T01:49:21;18.20;73.60
210;DHT22;90;48.810;9.120;2023-06-10T01:51:49;18.20;73.40
210;DHT22;90;48.810;9.120;2023-06-10T01:54:17;18.20;72.80
210;DHT22;90;48.810;9.120;2023-06-10T01:56:44;18.20;72.50
210;DHT22;90;48.810;9.120;2023-06-10T01:59:11;18.20;73.00
210;DHT22;90;48.810;9.120;2023-06-10T02:01:38;18.20;73.40
210;DHT22;90;48.810;9.120;2023-06-10T02:04:04;18.20;73.20
210;DHT22;90;48.810;9.120;2023-06-10T02:06:31;18.10;73.60
210;DHT22;90;48.810;9.120;2023-06-10T02:08:58;18.10;73.70
210;DHT22;90;48.810;9.120;2023-06-10T02:11:26;17.90;74.50
210;DHT22;90;48.810;9.120;2023-06-10T02:13:53;17.80;75.00
210;DHT22;90;48.810;9.120;2023-06-10T02:16:20;17.70;75.20
210;DHT22;90;48.810;9.120;2023-06-10T02:18:47;17.60;75.20
210;DHT22;90;48.810;9.120;2023-06-10T02:21:14;17.70;74.60
210;DHT22;90;48.810;9.120;2023-06-10T02:23:40;17.70;74.80
210;DHT22;90;48.810;9.120;2023-06-10T02:26:07;17.70;74.70
210;DHT22;90;48.810;9.120;2023-06-10T02:28:35;17.70;74.70
210;DHT22;90;48.810;9.120;2023-06-10T02:31:02;17.60;74.70
210;DHT22;90;48.810;9.120;2023-06-10T02:33:29;17.60;74.80
210;DHT22;90;48.810;9.120;2023-06-10T02:35:56;17.60;74.90
210;DHT22;90;48.810;9.120;2023-06-10T02:38:22;17.60;75.10
210;DHT22;90;48.810;9.120;2023-06-10T02:40:49;17.50;75.30
210;DHT22;90;48.810;9.120;2023-06-10T02:43:16;17.50;75.00
210;DHT22;90;48.810;9.120;2023-06-10T02:45:44;17.50;75.10
210;DHT22;90;48.810;9.120;2023-06-10T02:48:10;17.50;75.40
210;DHT22;90;48.810;9.120;2023-06-10T02:50:37;17.50;75.40
210;DHT22;90;48.810;9.120;2023-06-10T02:53:05;17.40;75.60
210;DHT22;90;48.810;9.120;2023-06-10T02:55:32;17.40;75.80
210;DHT22;90;48.810;9.120;2023-06-10T02:57:58;17.30;75.80
210;DHT22;90;48.810;9.120;2023-06-10T03:00:25;17.30;76.10
210;DHT22;90;48.810;9.120;2023-06-10T03:02:53;17.20;76.10
210;DHT22;90;48.810;9.120;2023-06-10T03:05:22;17.10;76.40
210;DHT22;90;48.810;9.120;2023-06-10T03:07:49;17.10;76.60
210;DHT22;90;48.810;9.120;2023-06-10T03:10:16;17.10;76.60
210;DHT22;90;48.810;9.120;2023-06-10T03:12:42;17.10;76.40
210;DHT22;90;48.810;9.120;2023-06-10T03:15:09;17.00;76.60
210;DHT22;90;48.810;9.120;2023-06-10T03:17:36;17.10;76.50
210;DHT22;90;48.810;9.120;2023-06-10T03:20:05;17.10;76.50
210;DHT22;90;48.810;9.120;2023-06-10T03:22:35;17.10;76.60
210;DHT22;90;48.810;9.120;2023-06-10T03:25:03;17.10;76.60
210;DHT22;90;48.810;9.120;2023-06-10T03:27:30;17.10;76.60
210;DHT22;90;48.810;9.120;2023-06-10T03:29:58;17.00;76.60
210;DHT22;90;48.810;9.120;2023-06-10T03:32:24;17.00;76.70
210;DHT22;90;48.810;9.120;2023-06-10T03:34:51;17.00;76.60
210;DHT22;90;48.810;9.120;2023-06-10T03:37:23;17.00;76.50
210;DHT22;90;48.810;9.120;2023-06-10T03:39:50;17.00;76.70
210;DHT22;90;48.810;9.120;2023-06-10T03:42:17;16.90;77.00
210;DHT22;90;48.810;9.120;2023-06-10T03:44:44;16.90;77.00
210;DHT22;90;48.810;9.120;2023-06-10T03:47:10;16.90;77.10
210;DHT22;90;48.810;9.120;2023-06-10T03:49:38;16.80;77.40
210;DHT22;90;48.810;9.120;2023-06-10T03:52:06;16.70;77.80
210;DHT22;90;48.810;9.120;2023-06-10T03:54:34;16.70;77.90
210;DHT22;90;48.810;9.120;2023-06-10T03:57:01;16.70;77.90
210;DHT22;90;48.810;9.120;2023-06-10T03:59:28;16.70;78.00
210;DHT22;90;48.810;9.120;2023-06-10T04:01:55;16.70;78.10
210;DHT22;90;48.810;9.120;2023-06-10T04:04:23;16.70;78.20
210;DHT22;90;48.810;9.120;2023-06-10T04:06:50;16.80;78.00
210;DHT22;90;48.810;9.120;2023-06-10T04:09:16;16.80;77.90
210;DHT22;90;48.810;9.120;2023-06-10T04:11:44;16.80;77.60
210;DHT22;90;48.810;9.120;2023-06-10T04:14:11;16.90;77.50
210;DHT22;90;48.810;9.120;2023-06-10T04:16:39;17.00;77.30
210;DHT22;90;48.810;9.120;2023-06-10T04:19:06;17.00;77.40
210;DHT22;90;48.810;9.120;2023-06-10T04:21:32;17.10;77.40
210;DHT22;90;48.810;9.120;2023-06-10T04:23:59;17.10;77.50
210;DHT22;90;48.810;9.120;2023-06-10T04:26:27;17.10;77.40
210;DHT22;90;48.810;9.120;2023-06-10T04:28:55;17.10;77.80
210;DHT22;90;48.810;9.120;2023-06-10T04:31:22;17.10;77.70
210;DHT22;90;48.810;9.120;2023-06-10T04:33:48;17.10;77.40
210;DHT22;90;48.810;9.120;2023-06-10T04:36:15;17.20;77.40
210;DHT22;90;48.810;9.120;2023-06-10T04:38:42;17.20;77.20
210;DHT22;90;48.810;9.120;2023-06-10T04:41:08;17.30;76.90
210;DHT22;90;48.810;9.120;2023-06-10T04:43:35;17.40;76.70
210;DHT22;90;48.810;9.120;2023-06-10T04:46:03;17.50;76.60
210;DHT22;90;48.810;9.120;2023-06-10T04:48:30;17.60;76.30
210;DHT22;90;48.810;9.120;2023-06-10T04:50:58;17.70;76.20
210;DHT22;90;48.810;9.120;2023-06-10T04:53:25;17.80;76.20
210;DHT22;90;48.810;9.120;2023-06-10T04:55:54;17.80;75.90
210;DHT22;90;48.810;9.120;2023-06-10T04:58:20;17.90;76.10
210;DHT22;90;48.810;9.120;2023-06-10T05:00:47;18.00;75.60
210;DHT22;90;48.810;9.120;2023-06-10T05:03:15;18.20;74.90
210;DHT22;90;48.810;9.120;2023-06-10T05:05:42;18.30;74.80
210;DHT22;90;48.810;9.120;2023-06-10T05:08:08;18.40;74.70
210;DHT22;90;48.810;9.120;2023-06-10T05:10:35;18.60;74.80
210;DHT22;90;48.810;9.120;2023-06-10T05:13:02;18.70;74.00
210;DHT22;90;48.810;9.120;2023-06-10T05:15:29;18.80;73.50
210;DHT22;90;48.810;9.120;2023-06-10T05:17:56;18.90;73.60
210;DHT22;90;48.810;9.120;2023-06-10T05:20:25;19.00;73.50
210;DHT22;90;48.810;9.120;2023-06-10T05:22:52;19.00;73.50
210;DHT22;90;48.810;9.120;2023-06-10T05:25:19;19.10;73.40
210;DHT22;90;48.810;9.120;2023-06-10T05:27:45;19.20;73.80
210;DHT22;90;48.810;9.120;2023-06-10T05:30:12;19.20;73.70
210;DHT22;90;48.810;9.120;2023-06-10T05:32:39;19.20;73.50
210;DHT22;90;48.810;9.120;2023-06-10T05:35:06;19.30;73.60
210;DHT22;90;48.810;9.120;2023-06-10T05:37:35;19.30;73.30
210;DHT22;90;48.810;9.120;2023-06-10T05:40:02;19.40;73.00
210;DHT22;90;48.810;9.120;2023-06-10T05:42:29;19.60;73.00
210;DHT22;90;48.810;9.120;2023-06-10T05:44:56;19.60;72.40
210;DHT22;90;48.810;9.120;2023-06-10T05:47:23;19.70;72.80
210;DHT22;90;48.810;9.120;2023-06-10T05:49:49;19.80;72.10
210;DHT22;90;48.810;9.120;2023-06-10T05:52:17;19.90;71.50
210;DHT22;90;48.810;9.120;2023-06-10T05:54:45;20.00;71.00
210;DHT22;90;48.810;9.120;2023-06-10T05:57:12;20.00;70.70
210;DHT22;90;48.810;9.120;2023-06-10T05:59:39;20.00;71.30
210;DHT22;90;48.810;9.120;2023-06-10T06:02:05;20.10;71.00
210;DHT22;90;48.810;9.120;2023-06-10T06:04:32;20.20;70.70
210;DHT22;90;48.810;9.120;2023-06-10T06:06:59;20.30;70.20
210;DHT22;90;48.810;9.120;2023-06-10T06:09:26;20.30;70.00
210;DHT22;90;48.810;9.120;2023-06-10T06:11:54;20.60;68.20
210;DHT22;90;48.810;9.120;2023-06-10T06:14:20;21.10;66.60
210;DHT22;90;48.810;9.120;2023-06-10T06:16:47;21.50;65.20
210;DHT22;90;48.810;9.120;2023-06-10T06:19:14;21.80;64.10
210;DHT22;90;48.810;9.120;2023-06-10T06:21:41;22.00;63.20
210;DHT22;90;48.810;9.120;2023-06-10T06:24:08;22.20;62.80
210;DHT22;90;48.810;9.120;2023-06-10T06:26:34;22.40;62.60
210;DHT22;90;48.810;9.120;2023-06-10T06:29:02;22.40;62.40
210;DHT22;90;48.810;9.120;2023-06-10T06:31:29;22.50;62.20
210;DHT22;90;48.810;9.120;2023-06-10T06:33:56;22.60;61.80
210;DHT22;90;48.810;9.120;2023-06-10T06:36:22;22.70;61.60
210;DHT22;90;48.810;9.120;2023-06-10T06:38:49;22.80;61.20
210;DHT22;90;48.810;9.120;2023-06-10T06:41:16;22.80;61.10
210;DHT22;90;48.810;9.120;2023-06-10T06:43:43;22.80;61.30
210;DHT22;90;48.810;9.120;2023-06-10T06:46:11;22.80;61.00
210;DHT22;90;48.810;9.120;2023-06-10T06:48:37;23.00;60.70
210;DHT22;90;48.810;9.120;2023-06-10T06:51:04;23.00;60.80
210;DHT22;90;48.810;9.120;2023-06-10T06:53:31;23.00;60.40
210;DHT22;90;48.810;9.120;2023-06-10T06:56:00;23.10;60.60
210;DHT22;90;48.810;9.120;2023-06-10T06:58:28;23.10;60.60
210;DHT22;90;48.810;9.120;2023-06-10T07:00:55;23.10;60.50
210;DHT22;90;48.810;9.120;2023-06-10T07:03:23;23.20;60.30
210;DHT22;90;48.810;9.120;2023-06-10T07:05:49;23.10;61.20
210;DHT22;90;48.810;9.120;2023-06-10T07:08:16;23.10;61.30
210;DHT22;90;48.810;9.120;2023-06-10T07:10:43;22.90;61.80
210;DHT22;90;48.810;9.120;2023-06-10T07:13:09;22.80;62.10
210;DHT22;90;48.810;9.120;2023-06-10T07:15:36;22.70;61.80
210;DHT22;90;48.810;9.120;2023-06-10T07:18:03;22.60;63.20
210;DHT22;90;48.810;9.120;2023-06-10T07:20:31;22.50;63.10
210;DHT22;90;48.810;9.120;2023-06-10T07:22:58;22.50;63.30
210;DHT22;90;48.810;9.120;2023-06-10T07:25:24;22.40;64.20
210;DHT22;90;48.810;9.120;2023-06-10T07:27:51;22.40;63.70
210;DHT22;90;48.810;9.120;2023-06-10T07:30:18;22.40;63.50
210;DHT22;90;48.810;9.120;2023-06-10T07:32:45;22.40;64.00
210;DHT22;90;48.810;9.120;2023-06-10T07:35:12;22.50;63.60
210;DHT22;90;48.810;9.120;2023-06-10T07:37:40;22.40;64.50
210;DHT22;90;48.810;9.120;2023-06-10T07:40:07;22.40;63.20
210;DHT22;90;48.810;9.120;2023-06-10T07:42:35;22.40;61.70
210;DHT22;90;48.810;9.120;2023-06-10T07:45:02;22.40;62.80
210;DHT22;90;48.810;9.120;2023-06-10T07:47:29;22.40;62.70
210;DHT22;90;48.810;9.120;2023-06-10T07:49:56;22.50;62.90
210;DHT22;90;48.810;9.120;2023-06-10T07:52:23;22.60;63.00
210;DHT22;90;48.810;9.120;2023-06-10T07:54:51;22.60;63.10
210;DHT22;90;48.810;9.120;2023-06-10T07:57:18;22.70;63.10
210;DHT22;90;48.810;9.120;2023-06-10T07:59:45;22.70;63.50
210;DHT22;90;48.810;9.120;2023-06-10T08:02:12;22.80;63.20
210;DHT22;90;48.810;9.120;2023-06-10T08:04:38;22.80;63.40
210;DHT22;90;48.810;9.120;2023-06-10T08:07:05;22.90;63.60
210;DHT22;90;48.810;9.120;2023-06-10T08:09:32;23.00;63.10
210;DHT22;90;48.810;9.120;2023-06-10T08:12:00;22.90;63.10
210;DHT22;90;48.810;9.120;2023-06-10T08:14:27;23.00;62.80
210;DHT22;90;48.810;9.120;2023-06-10T08:16:54;22.90;62.80
210;DHT22;90;48.810;9.120;2023-06-10T08:19:20;23.10;62.60
210;DHT22;90;48.810;9.120;2023-06-10T08:21:47;23.20;62.90
210;DHT22;90;48.810;9.120;2023-06-10T08:24:14;23.20;61.20
210;DHT22;90;48.810;9.120;2023-06-10T08:26:43;23.10;62.20
210;DHT22;90;48.810;9.120;2023-06-10T08:29:12;23.10;62.80
210;DHT22;90;48.810;9.120;2023-06-10T08:31:41;23.20;62.90
210;DHT22;90;48.810;9.120;2023-06-10T08:34:08;23.30;62.60
210;DHT22;90;48.810;9.120;2023-06-10T08:36:34;23.30;62.20
210;DHT22;90;48.810;9.120;2023-06-10T08:39:02;23.30;62.20
210;DHT22;90;48.810;9.120;2023-06-10T08:41:30;23.20;61.90
210;DHT22;90;48.810;9.120;2023-06-10T08:44:06;23.30;62.70
210;DHT22;90;48.810;9.120;2023-06-10T08:46:36;23.30;62.90
210;DHT22;90;48.810;9.120;2023-06-10T08:49:05;23.40;61.80
210;DHT22;90;48.810;9.120;2023-06-10T08:51:35;23.40;62.10
210;DHT22;90;48.810;9.120;2023-06-10T08:54:04;23.40;62.70
210;DHT22;90;48.810;9.120;2023-06-10T08:56:32;23.50;61.80
210;DHT22;90;48.810;9.120;2023-06-10T08:59:02;23.50;61.10
210;DHT22;90;48.810;9.120;2023-06-10T09:01:29;23.40;61.80
210;DHT22;90;48.810;9.120;2023-06-10T09:03:59;23.50;61.50
210;DHT22;90;48.810;9.120;2023-06-10T09:06:26;23.50;61.90
210;DHT22;90;48.810;9.120;2023-06-10T09:08:56;23.60;60.70
210;DHT22;90;48.810;9.120;2023-06-10T09:11:26;23.60;60.60
210;DHT22;90;48.810;9.120;2023-06-10T09:13:53;23.90;61.30
210;DHT22;90;48.810;9.120;2023-06-10T09:16:19;24.00;61.30
210;DHT22;90;48.810;9.120;2023-06-10T09:18:46;24.20;60.40
210;DHT22;90;48.810;9.120;2023-06-10T09:21:14;24.30;60.00
210;DHT22;90;48.810;9.120;2023-06-10T09:23:41;24.40;58.90
210;DHT22;90;48.810;9.120;2023-06-10T09:26:09;24.50;58.70
210;DHT22;90;48.810;9.120;2023-06-10T09:28:36;24.40;58.40
210;DHT22;90;48.810;9.120;2023-06-10T09:31:05;24.20;59.30
210;DHT22;90;48.810;9.120;2023-06-10T09:33:33;24.30;59.40
210;DHT22;90;48.810;9.120;2023-06-10T09:36:03;24.50;59.60
210;DHT22;90;48.810;9.120;2023-06-10T09:38:32;24.70;59.40
210;DHT22;90;48.810;9.120;2023-06-10T09:40:59;24.80;58.50
210;DHT22;90;48.810;9.120;2023-06-10T09:43:40;24.70;58.20
210;DHT22;90;48.810;9.120;2023-06-10T09:46:07;24.80;57.70
210;DHT22;90;48.810;9.120;2023-06-10T09:48:41;24.90;57.90
210;DHT22;90;48.810;9.120;2023-06-10T09:51:09;24.90;57.60
210;DHT22;90;48.810;9.120;2023-06-10T09:53:37;25.00;57.70
210;DHT22;90;48.810;9.120;2023-06-10T09:56:05;25.10;56.10
210;DHT22;90;48.810;9.120;2023-06-10T09:58:35;24.90;56.10
210;DHT22;90;48.810;9.120;2023-06-10T10:01:06;24.80;57.00
210;DHT22;90;48.810;9.120;2023-06-10T10:03:33;24.70;58.80
210;DHT22;90;48.810;9.120;2023-06-10T10:06:00;24.60;56.30
210;DHT22;90;48.810;9.120;2023-06-10T10:08:27;24.60;56.90
210;DHT22;90;48.810;9.120;2023-06-10T10:10:56;24.80;57.10
210;DHT22;90;48.810;9.120;2023-06-10T10:13:24;25.00;58.20
210;DHT22;90;48.810;9.120;2023-06-10T10:15:52;25.20;56.30
210;DHT22;90;48.810;9.120;2023-06-10T10:18:20;25.30;57.00
210;DHT22;90;48.810;9.120;2023-06-10T10:20:54;25.30;56.50
210;DHT22;90;48.810;9.120;2023-06-10T10:23:26;25.40;56.40
210;DHT22;90;48.810;9.120;2023-06-10T10:25:57;25.50;54.90
210;DHT22;90;48.810;9.120;2023-06-10T10:28:34;25.50;53.20
210;DHT22;90;48.810;9.120;2023-06-10T10:31:08;25.50;54.20
210;DHT22;90;48.810;9.120;2023-06-10T10:33:40;25.50;54.00
210;DHT22;90;48.810;9.120;2023-06-10T10:36:08;25.30;54.90
210;DHT22;90;48.810;9.120;2023-06-10T10:38:36;25.10;54.50
210;DHT22;90;48.810;9.120;2023-06-10T10:41:04;25.00;54.80
210;DHT22;90;48.810;9.120;2023-06-10T10:43:32;25.10;55.90
210;DHT22;90;48.810;9.120;2023-06-10T10:45:59;25.20;55.70
210;DHT22;90;48.810;9.120;2023-06-10T10:48:27;25.40;55.40
210;DHT22;90;48.810;9.120;2023-06-10T10:50:59;25.50;55.10
210;DHT22;90;48.810;9.120;2023-06-10T10:53:26;25.60;55.90
210;DHT22;90;48.810;9.120;2023-06-10T10:55:59;25.70;55.00
210;DHT22;90;48.810;9.120;2023-06-10T10:58:28;25.60;54.20
210;DHT22;90;48.810;9.120;2023-06-10T11:00:54;25.60;54.60
210;DHT22;90;48.810;9.120;2023-06-10T11:03:21;25.60;53.80
210;DHT22;90;48.810;9.120;2023-06-10T11:05:48;25.40;55.40
210;DHT22;90;48.810;9.120;2023-06-10T11:08:47;25.40;54.90
210;DHT22;90;48.810;9.120;2023-06-10T11:11:20;25.50;54.80
210;DHT22;90;48.810;9.120;2023-06-10T11:14:04;25.60;53.40
210;DHT22;90;48.810;9.120;2023-06-10T11:16:39;25.70;52.90
210;DHT22;90;48.810;9.120;2023-06-10T11:19:06;25.60;52.60
210;DHT22;90;48.810;9.120;2023-06-10T11:21:45;25.70;53.20
210;DHT22;90;48.810;9.120;2023-06-10T11:24:23;25.90;53.10
210;DHT22;90;48.810;9.120;2023-06-10T11:26:50;26.00;51.90
210;DHT22;90;48.810;9.120;2023-06-10T11:29:18;26.10;51.80
210;DHT22;90;48.810;9.120;2023-06-10T11:31:49;26.10;52.50
210;DHT22;90;48.810;9.120;2023-06-10T11:34:22;26.20;53.10
210;DHT22;90;48.810;9.120;2023-06-10T11:36:51;26.30;50.90
210;DHT22;90;48.810;9.120;2023-06-10T11:39:19;26.20;51.30
210;DHT22;90;48.810;9.120;2023-06-10T11:41:46;26.20;51.80
210;DHT22;90;48.810;9.120;2023-06-10T11:44:14;26.30;51.80
210;DHT22;90;48.810;9.120;2023-06-10T11:46:42;26.40;51.00
210;DHT22;90;48.810;9.120;2023-06-10T11:49:09;26.30;50.50
210;DHT22;90;48.810;9.120;2023-06-10T11:51:37;26.40;52.10
210;DHT22;90;48.810;9.120;2023-06-10T11:54:04;26.30;50.40
210;DHT22;90;48.810;9.120;2023-06-10T11:56:31;26.30;49.70
210;DHT22;90;48.810;9.120;2023-06-10T11:58:59;26.20;50.30
210;DHT22;90;48.810;9.120;2023-06-10T12:01:30;26.00;51.20
210;DHT22;90;48.810;9.120;2023-06-10T12:04:00;26.10;51.70
210;DHT22;90;48.810;9.120;2023-06-10T12:06:27;26.30;51.00
210;DHT22;90;48.810;9.120;2023-06-10T12:08:54;26.50;52.00
210;DHT22;90;48.810;9.120;2023-06-10T12:11:21;26.40;51.30
210;DHT22;90;48.810;9.120;2023-06-10T12:13:49;26.30;51.00
210;DHT22;90;48.810;9.120;2023-06-10T12:16:16;26.30;49.90
210;DHT22;90;48.810;9.120;2023-06-10T12:18:44;26.40;51.90
210;DHT22;90;48.810;9.120;2023-06-10T12:21:20;26.70;52.30
210;DHT22;90;48.810;9.120;2023-06-10T12:24:06;26.90;49.50
210;DHT22;90;48.810;9.120;2023-06-10T12:26:37;27.00;48.80
210;DHT22;90;48.810;9.120;2023-06-10T12:29:18;26.90;48.50
210;DHT22;90;48.810;9.120;2023-06-10T12:31:53;27.00;49.90
210;DHT22;90;48.810;9.120;2023-06-10T12:34:19;27.10;49.30
210;DHT22;90;48.810;9.120;2023-06-10T12:36:49;27.40;50.80
210;DHT22;90;48.810;9.120;2023-06-10T12:39:16;27.60;49.60
210;DHT22;90;48.810;9.120;2023-06-10T12:41:47;27.60;47.80
210;DHT22;90;48.810;9.120;2023-06-10T12:44:14;27.40;47.80
210;DHT22;90;48.810;9.120;2023-06-10T12:46:41;27.10;48.20
210;DHT22;90;48.810;9.120;2023-06-10T12:49:07;26.70;48.90
210;DHT22;90;48.810;9.120;2023-06-10T12:51:34;26.50;49.10
210;DHT22;90;48.810;9.120;2023-06-10T12:54:03;26.40;49.50
210;DHT22;90;48.810;9.120;2023-06-10T12:56:31;26.30;50.30
210;DHT22;90;48.810;9.120;2023-06-10T12:58:57;26.20;50.90
210;DHT22;90;48.810;9.120;2023-06-10T13:01:24;26.10;50.10
210;DHT22;90;48.810;9.120;2023-06-10T13:03:52;26.10;50.30
210;DHT22;90;48.810;9.120;2023-06-10T13:06:18;26.00;50.70
210;DHT22;90;48.810;9.120;2023-06-10T13:08:45;26.20;49.40
210;DHT22;90;48.810;9.120;2023-06-10T13:11:14;26.50;48.80
210;DHT22;90;48.810;9.120;2023-06-10T13:13:40;26.70;49.40
210;DHT22;90;48.810;9.120;2023-06-10T13:16:07;26.90;50.00
210;DHT22;90;48.810;9.120;2023-06-10T13:18:34;27.00;49.90
210;DHT22;90;48.810;9.120;2023-06-10T13:21:02;26.80;49.50
210;DHT22;90;48.810;9.120;2023-06-10T13:23:29;26.60;49.30
210;DHT22;90;48.810;9.120;2023-06-10T13:25:57;26.60;51.00
210;DHT22;90;48.810;9.120;2023-06-10T13:28:25;26.90;51.60
210;DHT22;90;48.810;9.120;2023-06-10T13:30:52;27.30;50.00
210;DHT22;90;48.810;9.120;2023-06-10T13:33:18;27.50;48.20
210;DHT22;90;48.810;9.120;2023-06-10T13:35:45;27.70;50.40
210;DHT22;90;48.810;9.120;2023-06-10T13:38:12;28.00;47.60
210;DHT22;90;48.810;9.120;2023-06-10T13:40:38;28.10;47.10
210;DHT22;90;48.810;9.120;2023-06-10T13:43:05;28.20;46.00
210;DHT22;90;48.810;9.120;2023-06-10T13:45:33;28.20;44.40
210;DHT22;90;48.810;9.120;2023-06-10T13:48:00;28.10;44.30
210;DHT22;90;48.810;9.120;2023-06-10T13:50:29;28.00;44.90
210;DHT22;90;48.810;9.120;2023-06-10T13:52:56;27.80;44.80
210;DHT22;90;48.810;9.120;2023-06-10T13:55:23;27.90;45.00
210;DHT22;90;48.810;9.120;2023-06-10T13:57:50;28.10;46.80
210;DHT22;90;48.810;9.120;2023-06-10T14:00:17;28.30;45.90
210;DHT22;90;48.810;9.120;2023-06-10T14:02:46;28.50;46.50
210;DHT22;90;48.810;9.120;2023-06-10T14:05:12;28.50;46.50
210;DHT22;90;48.810;9.120;2023-06-10T14:07:39;28.50;45.00
210;DHT22;90;48.810;9.120;2023-06-10T14:10:07;28.50;45.50
210;DHT22;90;48.810;9.120;2023-06-10T14:12:34;28.60;46.20
210;DHT22;90;48.810;9.120;2023-06-10T14:15:01;28.70;45.10
210;DHT22;90;48.810;9.120;2023-06-10T14:17:28;28.90;45.70
210;DHT22;90;48.810;9.120;2023-06-10T14:19:56;29.10;44.50
210;DHT22;90;48.810;9.120;2023-06-10T14:22:23;29.10;42.70
210;DHT22;90;48.810;9.120;2023-06-10T14:24:50;28.90;43.00
210;DHT22;90;48.810;9.120;2023-06-10T14:27:17;28.60;44.50
210;DHT22;90;48.810;9.120;2023-06-10T14:29:44;28.60;43.40
210;DHT22;90;48.810;9.120;2023-06-10T14:32:10;28.70;43.00
210;DHT22;90;48.810;9.120;2023-06-10T14:34:37;28.80;43.50
210;DHT22;90;48.810;9.120;2023-06-10T14:37:06;28.90;42.80
210;DHT22;90;48.810;9.120;2023-06-10T14:39:33;29.10;42.90
210;DHT22;90;48.810;9.120;2023-06-10T14:42:00;29.30;44.10
210;DHT22;90;48.810;9.120;2023-06-10T14:44:27;29.50;43.30
210;DHT22;90;48.810;9.120;2023-06-10T14:46:53;29.70;44.10
210;DHT22;90;48.810;9.120;2023-06-10T14:49:20;29.90;43.10
210;DHT22;90;48.810;9.120;2023-06-10T14:51:47;30.00;44.00
210;DHT22;90;48.810;9.120;2023-06-10T14:54:16;30.10;42.90
210;DHT22;90;48.810;9.120;2023-06-10T14:56:43;30.00;43.00
210;DHT22;90;48.810;9.120;2023-06-10T14:59:10;29.90;43.60
210;DHT22;90;48.810;9.120;2023-06-10T15:01:36;29.80;42.40
210;DHT22;90;48.810;9.120;2023-06-10T15:04:03;29.70;41.70
210;DHT22;90;48.810;9.120;2023-06-10T15:06:30;29.50;41.80
210;DHT22;90;48.810;9.120;2023-06-10T15:08:57;29.60;44.20
210;DHT22;90;48.810;9.120;2023-06-10T15:11:25;29.70;42.90
210;DHT22;90;48.810;9.120;2023-06-10T15:13:51;29.60;41.20
210;DHT22;90;48.810;9.120;2023-06-10T15:16:18;29.70;42.40
210;DHT22;90;48.810;9.120;2023-06-10T15:18:45;29.80;43.00
210;DHT22;90;48.810;9.120;2023-06-10T15:21:11;30.00;43.40
210;DHT22;90;48.810;9.120;2023-06-10T15:23:38;30.10;42.70
210;DHT22;90;48.810;9.120;2023-06-10T15:26:05;30.30;43.20
210;DHT22;90;48.810;9.120;2023-06-10T15:28:33;30.40;41.40
210;DHT22;90;48.810;9.120;2023-06-10T15:31:00;30.40;40.80
210;DHT22;90;48.810;9.120;2023-06-10T15:33:26;30.20;40.50
210;DHT22;90;48.810;9.120;2023-06-10T15:35:53;30.10;40.70
210;DHT22;90;48.810;9.120;2023-06-10T15:38:20;30.20;41.10
210;DHT22;90;48.810;9.120;2023-06-10T15:40:46;30.20;40.30
210;DHT22;90;48.810;9.120;2023-06-10T15:43:13;30.30;41.90
210;DHT22;90;48.810;9.120;2023-06-10T15:45:41;30.40;41.70
210;DHT22;90;48.810;9.120;2023-06-10T15:48:08;30.60;40.90
210;DHT22;90;48.810;9.120;2023-06-10T15:50:34;30.70;39.80
210;DHT22;90;48.810;9.120;2023-06-10T15:53:01;30.80;39.60
210;DHT22;90;48.810;9.120;2023-06-10T15:55:28;30.70;40.60
210;DHT22;90;48.810;9.120;2023-06-10T15:57:55;30.80;40.60
210;DHT22;90;48.810;9.120;2023-06-10T16:00:23;30.80;40.40
210;DHT22;90;48.810;9.120;2023-06-10T16:02:51;30.90;41.60
210;DHT22;90;48.810;9.120;2023-06-10T16:05:18;30.90;41.40
210;DHT22;90;48.810;9.120;2023-06-10T16:07:45;31.00;41.50
210;DHT22;90;48.810;9.120;2023-06-10T16:10:11;30.80;40.40
210;DHT22;90;48.810;9.120;2023-06-10T16:12:38;30.60;40.90
210;DHT22;90;48.810;9.120;2023-06-10T16:15:05;30.40;40.00
210;DHT22;90;48.810;9.120;2023-06-10T16:17:32;30.40;40.70
210;DHT22;90;48.810;9.120;2023-06-10T16:20:00;30.60;40.10
210;DHT22;90;48.810;9.120;2023-06-10T16:22:27;30.60;38.20
210;DHT22;90;48.810;9.120;2023-06-10T16:24:54;30.60;39.10
210;DHT22;90;48.810;9.120;2023-06-10T16:27:20;30.70;39.70
210;DHT22;90;48.810;9.120;2023-06-10T16:29:49;30.60;39.10
210;DHT22;90;48.810;9.120;2023-06-10T16:32:16;30.70;40.90
210;DHT22;90;48.810;9.120;2023-06-10T16:34:43;30.70;39.90
210;DHT22;90;48.810;9.120;2023-06-10T16:37:11;30.50;40.90
210;DHT22;90;48.810;9.120;2023-06-10T16:39:37;30.60;40.00
210;DHT22;90;48.810;9.120;2023-06-10T16:42:05;30.70;41.30
210;DHT22;90;48.810;9.120;2023-06-10T16:44:31;30.90;40.80
210;DHT22;90;48.810;9.120;2023-06-10T16:46:58;30.90;39.40
210;DHT22;90;48.810;9.120;2023-06-10T16:49:25;30.80;39.50
210;DHT22;90;48.810;9.120;2023-06-10T16:51:52;30.70;40.40
210;DHT22;90;48.810;9.120;2023-06-10T16:54:19;30.70;39.90